Luis Lopez, New Mexico
Current Conditions -  °F | °C
As of 7:35 AM on Sunday 23 Nov 2014 (Local Time) from KONM Reporting Station
Clear Clear  
Wind Chill: 52°   Ceiling: Unl
Heat Index: 52°   Visibility: 10mi
Dew Point: 25°   Wind: 26mph
Humidity: 35%   Direction: 300°WNW
Pressure: 29.83"   Gusts: 36mph
Location:  33.8946°N, 106.565°W
Report Text: KONM 231435Z AUTO 30023G31KT 10SM CLR 11/M04 A2983 RMK AO2 T01101040
Loading
Personal Weather Stations






























Interactive Weather Map New forecast layout! Learn more

10-Day Weather Forecast

Advertisements
Track Severe Weather on mobile